sensor_id;sensor_type;location;lat;lon;timestamp;pressure;altitude;pressure_sealevel;temperature;humidity
8366;BME280;4220;42.502;24.188;2022-07-10T00:00:25;95009.97;;;16.58;100.00
8366;BME280;4220;42.502;24.188;2022-07-10T00:02:52;95009.72;;;16.65;100.00
8366;BME280;4220;42.502;24.188;2022-07-10T00:05:22;95007.03;;;16.65;100.00
8366;BME280;4220;42.502;24.188;2022-07-10T00:07:49;95005.97;;;16.66;100.00
8366;BME280;4220;42.502;24.188;2022-07-10T00:10:17;95007.84;;;16.65;100.00
8366;BME280;4220;42.502;24.188;2022-07-10T00:12:44;95004.44;;;16.80;100.00
8366;BME280;4220;42.502;24.188;2022-07-10T00:15:11;95009.56;;;16.91;100.00
8366;BME280;4220;42.502;24.188;2022-07-10T00:17:38;94997.75;;;16.87;100.00
8366;BME280;4220;42.502;24.188;2022-07-10T00:20:07;94994.75;;;16.74;100.00
8366;BME280;4220;42.502;24.188;2022-07-10T00:22:35;94952.66;;;16.59;100.00
8366;BME280;4220;42.502;24.188;2022-07-10T00:25:04;94991.84;;;16.90;100.00
8366;BME280;4220;42.502;24.188;2022-07-10T00:27:31;94990.75;;;16.81;100.00
8366;BME280;4220;42.502;24.188;2022-07-10T00:29:58;94993.69;;;16.75;100.00
8366;BME280;4220;42.502;24.188;2022-07-10T00:32:25;94974.38;;;16.68;100.00
8366;BME280;4220;42.502;24.188;2022-07-10T00:34:52;94973.56;;;16.67;100.00
8366;BME280;4220;42.502;24.188;2022-07-10T00:37:19;94973.31;;;16.69;100.00
8366;BME280;4220;42.502;24.188;2022-07-10T00:39:48;94968.50;;;16.66;100.00
8366;BME280;4220;42.502;24.188;2022-07-10T00:42:15;94983.47;;;16.67;100.00
8366;BME280;4220;42.502;24.188;2022-07-10T00:44:43;94975.16;;;16.63;100.00
8366;BME280;4220;42.502;24.188;2022-07-10T00:47:10;94982.63;;;16.61;100.00
8366;BME280;4220;42.502;24.188;2022-07-10T00:49:39;94972.19;;;16.60;100.00
8366;BME280;4220;42.502;24.188;2022-07-10T00:52:08;94979.16;;;16.56;100.00
8366;BME280;4220;42.502;24.188;2022-07-10T00:54:36;94973.78;;;16.56;100.00
8366;BME280;4220;42.502;24.188;2022-07-10T00:57:06;94967.91;;;16.59;100.00
8366;BME280;4220;42.502;24.188;2022-07-10T00:59:34;94973.84;;;16.66;100.00
8366;BME280;4220;42.502;24.188;2022-07-10T01:02:01;94959.88;;;16.64;100.00
8366;BME280;4220;42.502;24.188;2022-07-10T01:04:28;94952.41;;;16.61;100.00
8366;BME280;4220;42.502;24.188;2022-07-10T01:06:55;94951.63;;;16.65;100.00
8366;BME280;4220;42.502;24.188;2022-07-10T01:09:22;94917.19;;;16.37;100.00
8366;BME280;4220;42.502;24.188;2022-07-10T01:11:49;94953.16;;;16.56;100.00
8366;BME280;4220;42.502;24.188;2022-07-10T01:14:18;94952.41;;;16.61;100.00
8366;BME280;4220;42.502;24.188;2022-07-10T01:16:46;94950.78;;;16.60;100.00
8366;BME280;4220;42.502;24.188;2022-07-10T01:19:13;94937.31;;;16.50;100.00
8366;BME280;4220;42.502;24.188;2022-07-10T01:21:41;94949.63;;;16.46;100.00
8366;BME280;4220;42.502;24.188;2022-07-10T01:24:09;94946.22;;;16.55;100.00
8366;BME280;4220;42.502;24.188;2022-07-10T01:26:38;94952.66;;;16.59;100.00
8366;BME280;4220;42.502;24.188;2022-07-10T01:29:08;94953.09;;;16.51;100.00
8366;BME280;4220;42.502;24.188;2022-07-10T01:31:36;94947.97;;;16.40;100.00
8366;BME280;4220;42.502;24.188;2022-07-10T01:34:05;94945.06;;;16.51;100.00
8366;BME280;4220;42.502;24.188;2022-07-10T01:36:33;94944.81;;;16.48;100.00
8366;BME280;4220;42.502;24.188;2022-07-10T01:39:02;94938.09;;;16.40;100.00
8366;BME280;4220;42.502;24.188;2022-07-10T01:41:29;94938.59;;;16.37;100.00
8366;BME280;4220;42.502;24.188;2022-07-10T01:43:55;94940.47;;;16.42;100.00
8366;BME280;4220;42.502;24.188;2022-07-10T01:46:22;94946.63;;;16.37;100.00
8366;BME280;4220;42.502;24.188;2022-07-10T01:48:49;94946.66;;;16.42;100.00
8366;BME280;4220;42.502;24.188;2022-07-10T01:51:16;94937.00;;;16.36;100.00
8366;BME280;4220;42.502;24.188;2022-07-10T01:53:43;94949.53;;;16.30;100.00
8366;BME280;4220;42.502;24.188;2022-07-10T01:56:12;94939.59;;;16.21;100.00
8366;BME280;4220;42.502;24.188;2022-07-10T01:58:40;94928.63;;;16.22;100.00
8366;BME280;4220;42.502;24.188;2022-07-10T02:01:08;94929.72;;;16.21;100.00
8366;BME280;4220;42.502;24.188;2022-07-10T02:03:35;94889.13;;;15.93;100.00
8366;BME280;4220;42.502;24.188;2022-07-10T02:06:19;94934.44;;;16.09;100.00
8366;BME280;4220;42.502;24.188;2022-07-10T02:08:46;94925.38;;;16.15;100.00
8366;BME280;4220;42.502;24.188;2022-07-10T02:11:14;94922.16;;;16.13;100.00
8366;BME280;4220;42.502;24.188;2022-07-10T02:13:41;94932.09;;;16.23;100.00
8366;BME280;4220;42.502;24.188;2022-07-10T02:16:08;94934.50;;;16.24;100.00
8366;BME280;4220;42.502;24.188;2022-07-10T02:18:36;94921.66;;;16.16;100.00
8366;BME280;4220;42.502;24.188;2022-07-10T02:21:03;94931.00;;;16.14;100.00
8366;BME280;4220;42.502;24.188;2022-07-10T02:23:30;94931.47;;;16.06;100.00
8366;BME280;4220;42.502;24.188;2022-07-10T02:25:57;94927.22;;;16.10;100.00
8366;BME280;4220;42.502;24.188;2022-07-10T02:28:25;94924.28;;;16.06;100.00
8366;BME280;4220;42.502;24.188;2022-07-10T02:30:52;94924.00;;;16.08;100.00
8366;BME280;4220;42.502;24.188;2022-07-10T02:33:19;94919.97;;;16.05;100.00
8366;BME280;4220;42.502;24.188;2022-07-10T02:35:45;94928.00;;;16.05;100.00
8366;BME280;4220;42.502;24.188;2022-07-10T02:38:12;94939.78;;;16.04;100.00
8366;BME280;4220;42.502;24.188;2022-07-10T02:40:39;94936.78;;;16.01;100.00
8366;BME280;4220;42.502;24.188;2022-07-10T02:43:06;94941.38;;;16.05;100.00
8366;BME280;4220;42.502;24.188;2022-07-10T02:45:34;94933.09;;;16.07;100.00
8366;BME280;4220;42.502;24.188;2022-07-10T02:48:01;94942.44;;;16.04;100.00
8366;BME280;4220;42.502;24.188;2022-07-10T02:50:28;94939.53;;;16.11;100.00
8366;BME280;4220;42.502;24.188;2022-07-10T02:52:55;94932.50;;;16.00;100.00
8366;BME280;4220;42.502;24.188;2022-07-10T02:55:22;94940.28;;;16.01;100.00
8366;BME280;4220;42.502;24.188;2022-07-10T02:57:49;94930.09;;;15.98;100.00
8366;BME280;4220;42.502;24.188;2022-07-10T03:00:16;94943.75;;;15.97;100.00
8366;BME280;4220;42.502;24.188;2022-07-10T03:02:44;94942.91;;;15.91;100.00
8366;BME280;4220;42.502;24.188;2022-07-10T03:05:11;94956.84;;;15.98;100.00
8366;BME280;4220;42.502;24.188;2022-07-10T03:07:38;94944.56;;;16.02;100.00
8366;BME280;4220;42.502;24.188;2022-07-10T03:10:05;94956.41;;;16.11;100.00
8366;BME280;4220;42.502;24.188;2022-07-10T03:12:32;94955.31;;;16.12;100.00
8366;BME280;4220;42.502;24.188;2022-07-10T03:14:59;94952.38;;;16.09;100.00
8366;BME280;4220;42.502;24.188;2022-07-10T03:17:26;94949.97;;;16.12;100.00
8366;BME280;4220;42.502;24.188;2022-07-10T03:19:54;94951.84;;;16.12;100.00
8366;BME280;4220;42.502;24.188;2022-07-10T03:22:21;94949.47;;;16.15;100.00
8366;BME280;4220;42.502;24.188;2022-07-10T03:24:48;94952.69;;;16.22;100.00
8366;BME280;4220;42.502;24.188;2022-07-10T03:27:15;94949.59;;;16.41;100.00
8366;BME280;4220;42.502;24.188;2022-07-10T03:29:42;94948.63;;;16.62;100.00
8366;BME280;4220;42.502;24.188;2022-07-10T03:32:09;94955.06;;;16.56;100.00
8366;BME280;4220;42.502;24.188;2022-07-10T03:34:35;94937.09;;;16.56;100.00
8366;BME280;4220;42.502;24.188;2022-07-10T03:37:04;94953.72;;;16.53;100.00
8366;BME280;4220;42.502;24.188;2022-07-10T03:39:31;94942.75;;;16.60;100.00
8366;BME280;4220;42.502;24.188;2022-07-10T03:41:57;94946.00;;;16.72;100.00
8366;BME280;4220;42.502;24.188;2022-07-10T03:44:24;94945.97;;;16.62;100.00
8366;BME280;4220;42.502;24.188;2022-07-10T03:46:51;94934.88;;;16.43;100.00
8366;BME280;4220;42.502;24.188;2022-07-10T03:49:18;94941.59;;;16.46;100.00
8366;BME280;4220;42.502;24.188;2022-07-10T03:51:45;94936.47;;;16.44;100.00
8366;BME280;4220;42.502;24.188;2022-07-10T03:54:13;94913.19;;;16.40;100.00
8366;BME280;4220;42.502;24.188;2022-07-10T03:56:40;94890.25;;;16.54;100.00
8366;BME280;4220;42.502;24.188;2022-07-10T03:59:21;94934.72;;;16.65;100.00
8366;BME280;4220;42.502;24.188;2022-07-10T04:01:47;94943.47;;;16.45;100.00
8366;BME280;4220;42.502;24.188;2022-07-10T04:04:14;94932.97;;;16.33;100.00
8366;BME280;4220;42.502;24.188;2022-07-10T04:06:41;94937.81;;;16.42;100.00
8366;BME280;4220;42.502;24.188;2022-07-10T04:09:08;94929.50;;;16.38;100.00
8366;BME280;4220;42.502;24.188;2022-07-10T04:11:36;94935.13;;;16.42;100.00
8366;BME280;4220;42.502;24.188;2022-07-10T04:14:03;94937.00;;;16.36;100.00
8366;BME280;4220;42.502;24.188;2022-07-10T04:16:30;94934.81;;;16.28;100.00
8366;BME280;4220;42.502;24.188;2022-07-10T04:18:57;94938.56;;;16.32;100.00
8366;BME280;4220;42.502;24.188;2022-07-10T04:21:23;94940.22;;;16.38;100.00
8366;BME280;4220;42.502;24.188;2022-07-10T04:23:50;94937.00;;;16.36;100.00
8366;BME280;4220;42.502;24.188;2022-07-10T04:26:17;94933.25;;;16.37;100.00
8366;BME280;4220;42.502;24.188;2022-07-10T04:28:45;94942.66;;;16.50;100.00
8366;BME280;4220;42.502;24.188;2022-07-10T04:31:12;94939.00;;;16.56;100.00
8366;BME280;4220;42.502;24.188;2022-07-10T04:33:39;94926.56;;;16.40;100.00
8366;BME280;4220;42.502;24.188;2022-07-10T04:36:06;94933.56;;;16.46;100.00
8366;BME280;4220;42.502;24.188;2022-07-10T04:38:33;94931.97;;;16.50;100.00
8366;BME280;4220;42.502;24.188;2022-07-10T04:41:00;94933.03;;;16.44;100.00
8366;BME280;4220;42.502;24.188;2022-07-10T04:43:27;94938.88;;;16.35;100.00
8366;BME280;4220;42.502;24.188;2022-07-10T04:45:55;94926.28;;;16.36;100.00
8366;BME280;4220;42.502;24.188;2022-07-10T04:48:22;94935.66;;;16.33;100.00
8366;BME280;4220;42.502;24.188;2022-07-10T04:50:49;94933.06;;;16.54;100.00
8366;BME280;4220;42.502;24.188;2022-07-10T04:53:16;94935.94;;;16.42;100.00
8366;BME280;4220;42.502;24.188;2022-07-10T04:55:43;94933.56;;;16.46;100.00
8366;BME280;4220;42.502;24.188;2022-07-10T04:58:09;94936.25;;;16.51;100.00
8366;BME280;4220;42.502;24.188;2022-07-10T05:00:36;94940.66;;;16.72;100.00
8366;BME280;4220;42.502;24.188;2022-07-10T05:03:04;94939.31;;;16.74;100.00
8366;BME280;4220;42.502;24.188;2022-07-10T05:05:31;94935.00;;;16.63;100.00
8366;BME280;4220;42.502;24.188;2022-07-10T05:07:58;94938.22;;;16.60;100.00
8366;BME280;4220;42.502;24.188;2022-07-10T05:10:26;94939.06;;;16.81;100.00
8366;BME280;4220;42.502;24.188;2022-07-10T05:12:53;94934.81;;;16.85;100.00
8366;BME280;4220;42.502;24.188;2022-07-10T05:15:20;94942.63;;;17.02;100.00
8366;BME280;4220;42.502;24.188;2022-07-10T05:17:47;94948.03;;;17.27;100.00
8366;BME280;4220;42.502;24.188;2022-07-10T05:20:15;94946.69;;;17.39;100.00
8366;BME280;4220;42.502;24.188;2022-07-10T05:22:42;94940.25;;;17.45;100.00
8366;BME280;4220;42.502;24.188;2022-07-10T05:25:09;94941.34;;;17.44;100.00
8366;BME280;4220;42.502;24.188;2022-07-10T05:27:36;94940.53;;;17.34;100.00
8366;BME280;4220;42.502;24.188;2022-07-10T05:30:03;94924.97;;;17.31;100.00
8366;BME280;4220;42.502;24.188;2022-07-10T05:32:30;94932.47;;;17.34;100.00
8366;BME280;4220;42.502;24.188;2022-07-10T05:34:58;94934.34;;;17.38;100.00
8366;BME280;4220;42.502;24.188;2022-07-10T05:37:26;94934.34;;;17.33;100.00
8366;BME280;4220;42.502;24.188;2022-07-10T05:39:53;94924.69;;;17.42;100.00
8366;BME280;4220;42.502;24.188;2022-07-10T05:42:20;94847.78;;;16.97;100.00
8366;BME280;4220;42.502;24.188;2022-07-10T05:44:47;94925.78;;;17.51;100.00
8366;BME280;4220;42.502;24.188;2022-07-10T05:47:13;94925.78;;;17.67;100.00
8366;BME280;4220;42.502;24.188;2022-07-10T05:49:40;94933.31;;;17.70;100.00
8366;BME280;4220;42.502;24.188;2022-07-10T05:52:08;94927.69;;;17.81;100.00
8366;BME280;4220;42.502;24.188;2022-07-10T05:54:36;94922.28;;;17.91;100.00
8366;BME280;4220;42.502;24.188;2022-07-10T05:57:04;94931.16;;;17.92;100.00
8366;BME280;4220;42.502;24.188;2022-07-10T05:59:33;94937.31;;;17.97;100.00
8366;BME280;4220;42.502;24.188;2022-07-10T06:02:00;94920.19;;;17.83;100.00
8366;BME280;4220;42.502;24.188;2022-07-10T06:04:27;94944.03;;;17.95;100.00
8366;BME280;4220;42.502;24.188;2022-07-10T06:06:54;94938.66;;;17.95;100.00
8366;BME280;4220;42.502;24.188;2022-07-10T06:09:20;94937.31;;;17.97;100.00
8366;BME280;4220;42.502;24.188;2022-07-10T06:11:49;94930.59;;;18.10;100.00
8366;BME280;4220;42.502;24.188;2022-07-10T06:14:15;94943.19;;;18.14;100.00
8366;BME280;4220;42.502;24.188;2022-07-10T06:16:42;94934.34;;;18.09;100.00
8366;BME280;4220;42.502;24.188;2022-07-10T06:19:09;94924.41;;;18.19;100.00
8366;BME280;4220;42.502;24.188;2022-07-10T06:21:36;94925.44;;;18.23;100.00
8366;BME280;4220;42.502;24.188;2022-07-10T06:24:03;94939.13;;;18.27;100.00
8366;BME280;4220;42.502;24.188;2022-07-10T06:26:30;94926.53;;;18.22;100.00
8366;BME280;4220;42.502;24.188;2022-07-10T06:28:58;94933.22;;;18.35;100.00
8366;BME280;4220;42.502;24.188;2022-07-10T06:31:25;94916.81;;;18.47;100.00
8366;BME280;4220;42.502;24.188;2022-07-10T06:33:52;94925.38;;;18.59;100.00
8366;BME280;4220;42.502;24.188;2022-07-10T06:36:19;94943.56;;;18.82;100.00
8366;BME280;4220;42.502;24.188;2022-07-10T06:38:46;94944.81;;;18.89;100.00
8366;BME280;4220;42.502;24.188;2022-07-10T06:41:13;94943.50;;;18.87;100.00
8366;BME280;4220;42.502;24.188;2022-07-10T06:43:39;94943.75;;;18.96;100.00
8366;BME280;4220;42.502;24.188;2022-07-10T06:46:08;94954.00;;;18.88;100.00
8366;BME280;4220;42.502;24.188;2022-07-10T06:48:35;94952.88;;;18.94;100.00
8366;BME280;4220;42.502;24.188;2022-07-10T06:51:05;94953.69;;;18.95;100.00
8366;BME280;4220;42.502;24.188;2022-07-10T06:53:32;94945.38;;;18.91;100.00
8366;BME280;4220;42.502;24.188;2022-07-10T06:55:59;94960.88;;;19.05;100.00
8366;BME280;4220;42.502;24.188;2022-07-10T06:58:26;94970.06;;;18.99;100.00
8366;BME280;4220;42.502;24.188;2022-07-10T07:00:52;94958.94;;;18.56;100.00
8366;BME280;4220;42.502;24.188;2022-07-10T07:03:21;94972.34;;;18.66;100.00
8366;BME280;4220;42.502;24.188;2022-07-10T07:05:47;94967.53;;;18.63;100.00
8366;BME280;4220;42.502;24.188;2022-07-10T07:08:14;94959.78;;;18.47;100.00
8366;BME280;4220;42.502;24.188;2022-07-10T07:10:41;94948.78;;;18.33;100.00
8366;BME280;4220;42.502;24.188;2022-07-10T07:13:10;94966.50;;;18.39;100.00
8366;BME280;4220;42.502;24.188;2022-07-10T07:15:36;94953.06;;;18.34;100.00
8366;BME280;4220;42.502;24.188;2022-07-10T07:18:08;94968.13;;;18.35;100.00
8366;BME280;4220;42.502;24.188;2022-07-10T07:20:39;94968.38;;;18.34;100.00
8366;BME280;4220;42.502;24.188;2022-07-10T07:23:23;94965.16;;;18.42;100.00
8366;BME280;4220;42.502;24.188;2022-07-10T07:25:51;94969.16;;;18.44;100.00
8366;BME280;4220;42.502;24.188;2022-07-10T07:28:19;94935.41;;;18.23;100.00
8366;BME280;4220;42.502;24.188;2022-07-10T07:30:46;94965.66;;;18.59;100.00
8366;BME280;4220;42.502;24.188;2022-07-10T07:33:13;94981.22;;;18.62;100.00
8366;BME280;4220;42.502;24.188;2022-07-10T07:35:42;94946.88;;;18.54;100.00
8366;BME280;4220;42.502;24.188;2022-07-10T07:38:09;94980.09;;;18.78;100.00
8366;BME280;4220;42.502;24.188;2022-07-10T07:40:36;94980.84;;;18.88;100.00
8366;BME280;4220;42.502;24.188;2022-07-10T07:43:03;94974.31;;;19.05;100.00
8366;BME280;4220;42.502;24.188;2022-07-10T07:45:30;94976.50;;;19.03;100.00
8366;BME280;4220;42.502;24.188;2022-07-10T07:47:58;94973.78;;;19.08;100.00
8366;BME280;4220;42.502;24.188;2022-07-10T07:50:28;94997.13;;;19.12;100.00
8366;BME280;4220;42.502;24.188;2022-07-10T07:52:59;94954.47;;;19.01;100.00
8366;BME280;4220;42.502;24.188;2022-07-10T07:55:26;94968.88;;;19.20;100.00
8366;BME280;4220;42.502;24.188;2022-07-10T07:57:54;94970.16;;;19.27;100.00
8366;BME280;4220;42.502;24.188;2022-07-10T08:00:22;94975.19;;;19.44;100.00
8366;BME280;4220;42.502;24.188;2022-07-10T08:02:49;94975.72;;;19.46;100.00
8366;BME280;4220;42.502;24.188;2022-07-10T08:05:17;94940.41;;;19.19;100.00
8366;BME280;4220;42.502;24.188;2022-07-10T08:07:46;95006.91;;;19.52;100.00
8366;BME280;4220;42.502;24.188;2022-07-10T08:10:16;94977.88;;;19.44;100.00
8366;BME280;4220;42.502;24.188;2022-07-10T08:12:44;95000.50;;;19.43;100.00
8366;BME280;4220;42.502;24.188;2022-07-10T08:15:14;95006.38;;;19.50;100.00
8366;BME280;4220;42.502;24.188;2022-07-10T08:17:41;94959.69;;;19.31;100.00
8366;BME280;4220;42.502;24.188;2022-07-10T08:20:11;94992.47;;;19.77;100.00
8366;BME280;4220;42.502;24.188;2022-07-10T08:22:38;94997.47;;;19.88;100.00
8366;BME280;4220;42.502;24.188;2022-07-10T08:25:06;95008.69;;;20.00;100.00
8366;BME280;4220;42.502;24.188;2022-07-10T08:27:34;94987.81;;;19.87;100.00
8366;BME280;4220;42.502;24.188;2022-07-10T08:30:02;95004.31;;;20.09;100.00
8366;BME280;4220;42.502;24.188;2022-07-10T08:32:29;94968.38;;;19.90;100.00
8366;BME280;4220;42.502;24.188;2022-07-10T08:34:57;95001.47;;;20.30;100.00
8366;BME280;4220;42.502;24.188;2022-07-10T08:37:24;94973.56;;;20.15;100.00
8366;BME280;4220;42.502;24.188;2022-07-10T08:39:51;95010.44;;;20.49;100.00
8366;BME280;4220;42.502;24.188;2022-07-10T08:42:18;95008.44;;;20.59;100.00
8366;BME280;4220;42.502;24.188;2022-07-10T08:44:47;95006.28;;;20.61;99.77
8366;BME280;4220;42.502;24.188;2022-07-10T08:47:14;95001.09;;;20.65;100.00
8366;BME280;4220;42.502;24.188;2022-07-10T08:49:46;95005.78;;;21.07;99.60
8366;BME280;4220;42.502;24.188;2022-07-10T08:52:25;95010.22;;;21.40;95.77
8366;BME280;4220;42.502;24.188;2022-07-10T08:54:52;95008.22;;;21.45;94.14
8366;BME280;4220;42.502;24.188;2022-07-10T08:57:23;95003.19;;;21.58;93.04
8366;BME280;4220;42.502;24.188;2022-07-10T08:59:51;95022.53;;;21.83;92.52
8366;BME280;4220;42.502;24.188;2022-07-10T09:02:19;95004.81;;;21.96;90.86
8366;BME280;4220;42.502;24.188;2022-07-10T09:04:46;95002.06;;;22.14;89.07
8366;BME280;4220;42.502;24.188;2022-07-10T09:07:13;95007.94;;;22.35;90.36
8366;BME280;4220;42.502;24.188;2022-07-10T09:09:53;95001.25;;;22.46;90.64
8366;BME280;4220;42.502;24.188;2022-07-10T09:12:20;95001.25;;;22.46;87.45
8366;BME280;4220;42.502;24.188;2022-07-10T09:14:47;94995.16;;;22.54;84.45
8366;BME280;4220;42.502;24.188;2022-07-10T09:17:16;94990.34;;;22.51;83.44
8366;BME280;4220;42.502;24.188;2022-07-10T09:19:43;94989.66;;;22.59;84.40
8366;BME280;4220;42.502;24.188;2022-07-10T09:22:11;94987.38;;;22.53;83.24
8366;BME280;4220;42.502;24.188;2022-07-10T09:24:39;94982.25;;;22.51;83.90
8366;BME280;4220;42.502;24.188;2022-07-10T09:27:07;94985.50;;;22.81;83.65
8366;BME280;4220;42.502;24.188;2022-07-10T09:29:44;94977.69;;;23.06;84.57
8366;BME280;4220;42.502;24.188;2022-07-10T09:32:12;94977.00;;;22.87;82.33
8366;BME280;4220;42.502;24.188;2022-07-10T09:34:42;94983.47;;;22.59;83.94
8366;BME280;4220;42.502;24.188;2022-07-10T09:37:22;94982.19;;;22.84;82.90
8366;BME280;4220;42.502;24.188;2022-07-10T09:39:54;95011.03;;;22.88;83.94
8366;BME280;4220;42.502;24.188;2022-07-10T09:42:29;94985.78;;;22.65;83.78
8366;BME280;4220;42.502;24.188;2022-07-10T09:45:17;94994.94;;;22.97;82.85
8366;BME280;4220;42.502;24.188;2022-07-10T09:47:46;95002.63;;;23.03;83.04
8366;BME280;4220;42.502;24.188;2022-07-10T09:50:23;95001.81;;;23.03;82.10
8366;BME280;4220;42.502;24.188;2022-07-10T09:52:51;94996.84;;;22.96;80.95
8366;BME280;4220;42.502;24.188;2022-07-10T09:55:20;94996.03;;;22.96;80.48
8366;BME280;4220;42.502;24.188;2022-07-10T09:57:53;94998.53;;;23.19;82.10
8366;BME280;4220;42.502;24.188;2022-07-10T10:00:23;94960.44;;;23.16;80.13
8366;BME280;4220;42.502;24.188;2022-07-10T10:02:54;95005.25;;;23.71;78.62
8366;BME280;4220;42.502;24.188;2022-07-10T10:05:28;94998.22;;;24.06;79.78
8366;BME280;4220;42.502;24.188;2022-07-10T10:08:00;94984.91;;;23.96;79.25
8366;BME280;4220;42.502;24.188;2022-07-10T10:10:31;95010.50;;;23.68;80.60
8366;BME280;4220;42.502;24.188;2022-07-10T10:12:59;94985.78;;;23.33;81.28
8366;BME280;4220;42.502;24.188;2022-07-10T10:15:30;94951.13;;;23.35;80.77
8366;BME280;4220;42.502;24.188;2022-07-10T10:17:57;94980.88;;;23.71;80.40
8366;BME280;4220;42.502;24.188;2022-07-10T10:20:27;94984.72;;;23.70;79.61
8366;BME280;4220;42.502;24.188;2022-07-10T10:23:04;94988.78;;;23.81;78.96
8366;BME280;4220;42.502;24.188;2022-07-10T10:25:32;94973.78;;;23.75;77.76
8366;BME280;4220;42.502;24.188;2022-07-10T10:28:01;94979.41;;;23.65;78.36
8366;BME280;4220;42.502;24.188;2022-07-10T10:30:29;94974.63;;;23.84;78.35
8366;BME280;4220;42.502;24.188;2022-07-10T10:32:57;94966.97;;;23.64;77.80
8366;BME280;4220;42.502;24.188;2022-07-10T10:35:46;94968.88;;;23.42;78.17
8366;BME280;4220;42.502;24.188;2022-07-10T10:38:13;94963.22;;;23.74;78.37
8366;BME280;4220;42.502;24.188;2022-07-10T10:40:41;94961.72;;;24.26;76.05
8366;BME280;4220;42.502;24.188;2022-07-10T10:43:18;94929.28;;;24.43;71.42
8366;BME280;4220;42.502;24.188;2022-07-10T10:45:46;94923.84;;;24.43;72.44
8366;BME280;4220;42.502;24.188;2022-07-10T10:48:14;94973.38;;;24.79;73.66
8366;BME280;4220;42.502;24.188;2022-07-10T10:50:42;94963.53;;;24.69;72.06
8366;BME280;4220;42.502;24.188;2022-07-10T10:53:14;94949.28;;;24.86;71.38
8366;BME280;4220;42.502;24.188;2022-07-10T10:58:47;94966.25;;;24.69;72.69
8366;BME280;4220;42.502;24.188;2022-07-10T11:01:24;94942.63;;;24.61;71.72
8366;BME280;4220;42.502;24.188;2022-07-10T11:04:14;94952.00;;;24.95;71.95
8366;BME280;4220;42.502;24.188;2022-07-10T11:06:44;94948.56;;;25.28;69.96
8366;BME280;4220;42.502;24.188;2022-07-10T11:09:26;94954.59;;;25.82;68.25
8366;BME280;4220;42.502;24.188;2022-07-10T11:12:03;94945.75;;;26.36;66.93
8366;BME280;4220;42.502;24.188;2022-07-10T11:14:31;94945.63;;;26.79;63.38
8366;BME280;4220;42.502;24.188;2022-07-10T11:16:58;94947.63;;;26.91;61.24
8366;BME280;4220;42.502;24.188;2022-07-10T11:19:26;94944.56;;;26.54;61.78
8366;BME280;4220;42.502;24.188;2022-07-10T11:22:15;94936.72;;;26.53;62.50
8366;BME280;4220;42.502;24.188;2022-07-10T11:24:58;94938.47;;;27.04;61.56
8366;BME280;4220;42.502;24.188;2022-07-10T11:27:53;94943.47;;;27.72;60.25
8366;BME280;4220;42.502;24.188;2022-07-10T11:30:27;94929.06;;;28.13;58.66
8366;BME280;4220;42.502;24.188;2022-07-10T11:32:53;94924.81;;;28.48;58.39
8366;BME280;4220;42.502;24.188;2022-07-10T11:35:21;94924.81;;;28.48;55.14
8366;BME280;4220;42.502;24.188;2022-07-10T11:37:50;94934.19;;;27.73;58.18
8366;BME280;4220;42.502;24.188;2022-07-10T11:40:19;94937.44;;;26.88;59.90
8366;BME280;4220;42.502;24.188;2022-07-10T11:42:51;94894.13;;;26.19;60.64
8366;BME280;4220;42.502;24.188;2022-07-10T11:45:24;94923.19;;;26.74;60.79
8366;BME280;4220;42.502;24.188;2022-07-10T11:47:51;94903.69;;;26.80;60.33
8366;BME280;4220;42.502;24.188;2022-07-10T11:50:18;94876.19;;;27.02;59.08
8366;BME280;4220;42.502;24.188;2022-07-10T11:52:46;94908.41;;;27.21;58.92
8366;BME280;4220;42.502;24.188;2022-07-10T11:55:14;94912.72;;;27.72;59.40
8366;BME280;4220;42.502;24.188;2022-07-10T11:57:43;94922.53;;;27.85;56.58
8366;BME280;4220;42.502;24.188;2022-07-10T12:00:21;94928.81;;;27.85;56.19
8366;BME280;4220;42.502;24.188;2022-07-10T12:02:49;94926.28;;;27.80;57.74
8366;BME280;4220;42.502;24.188;2022-07-10T12:05:30;94912.00;;;27.83;56.63
8366;BME280;4220;42.502;24.188;2022-07-10T12:07:57;94911.00;;;28.21;55.93
8366;BME280;4220;42.502;24.188;2022-07-10T12:10:26;94875.09;;;27.65;56.27
8366;BME280;4220;42.502;24.188;2022-07-10T12:13:03;94918.69;;;27.65;56.44
8366;BME280;4220;42.502;24.188;2022-07-10T12:15:31;94920.63;;;27.85;56.87
8366;BME280;4220;42.502;24.188;2022-07-10T12:17:58;94926.59;;;27.58;55.94
8366;BME280;4220;42.502;24.188;2022-07-10T12:20:25;94893.63;;;27.01;57.05
8366;BME280;4220;42.502;24.188;2022-07-10T12:22:52;94926.72;;;26.83;57.07
8366;BME280;4220;42.502;24.188;2022-07-10T12:25:19;94913.72;;;26.42;59.13
8366;BME280;4220;42.502;24.188;2022-07-10T12:27:46;94916.13;;;26.43;59.20
8366;BME280;4220;42.502;24.188;2022-07-10T12:30:14;94906.38;;;26.42;59.04
8366;BME280;4220;42.502;24.188;2022-07-10T12:32:41;94907.28;;;26.55;58.98
8366;BME280;4220;42.502;24.188;2022-07-10T12:35:08;94912.06;;;26.58;57.53
8366;BME280;4220;42.502;24.188;2022-07-10T12:37:47;94911.16;;;26.92;56.84
8366;BME280;4220;42.502;24.188;2022-07-10T12:40:32;94919.66;;;26.90;58.79
8366;BME280;4220;42.502;24.188;2022-07-10T12:43:02;94901.59;;;26.69;59.79
8366;BME280;4220;42.502;24.188;2022-07-10T12:45:32;94921.91;;;26.33;59.77
8366;BME280;4220;42.502;24.188;2022-07-10T12:47:59;94911.88;;;26.08;60.15
8366;BME280;4220;42.502;24.188;2022-07-10T12:50:29;94831.84;;;25.63;60.94
8366;BME280;4220;42.502;24.188;2022-07-10T12:53:08;94897.63;;;26.03;60.82
8366;BME280;4220;42.502;24.188;2022-07-10T12:55:37;94902.78;;;25.87;62.71
8366;BME280;4220;42.502;24.188;2022-07-10T12:58:08;94898.31;;;25.48;64.38
8366;BME280;4220;42.502;24.188;2022-07-10T13:00:44;94894.69;;;24.88;66.44
8366;BME280;4220;42.502;24.188;2022-07-10T13:03:17;94898.09;;;24.62;65.71
8366;BME280;4220;42.502;24.188;2022-07-10T13:05:45;94899.56;;;24.68;66.03
8366;BME280;4220;42.502;24.188;2022-07-10T13:08:12;94895.22;;;24.98;64.49
8366;BME280;4220;42.502;24.188;2022-07-10T13:10:42;94891.72;;;25.41;63.65
8366;BME280;4220;42.502;24.188;2022-07-10T13:13:09;94896.03;;;26.19;62.62
8366;BME280;4220;42.502;24.188;2022-07-10T13:15:38;94887.69;;;26.70;61.03